sensor_id;sensor_type;location;lat;lon;timestamp;P1;durP1;ratioP1;P2;durP2;ratioP2
79583;SDS011;69053;57.338;18.700;2023-06-22T00:13:44;28.42;;;24.45;;
79583;SDS011;69053;57.338;18.700;2023-06-22T00:18:49;30.23;;;25.63;;
79583;SDS011;69053;57.338;18.700;2023-06-22T00:23:53;32.28;;;27.65;;
79583;SDS011;69053;57.338;18.700;2023-06-22T00:39:30;32.25;;;28.45;;
79583;SDS011;69053;57.338;18.700;2023-06-22T00:44:52;34.53;;;27.52;;
79583;SDS011;69053;57.338;18.700;2023-06-22T00:50:20;35.67;;;27.85;;
79583;SDS011;69053;57.338;18.700;2023-06-22T00:55:40;35.00;;;27.27;;
79583;SDS011;69053;57.338;18.700;2023-06-22T01:00:53;37.75;;;28.52;;
79583;SDS011;69053;57.338;18.700;2023-06-22T01:06:21;35.83;;;27.45;;
79583;SDS011;69053;57.338;18.700;2023-06-22T01:11:39;40.00;;;27.70;;
79583;SDS011;69053;57.338;18.700;2023-06-22T01:16:46;45.28;;;30.17;;
79583;SDS011;69053;57.338;18.700;2023-06-22T01:21:53;42.95;;;30.02;;
79583;SDS011;69053;57.338;18.700;2023-06-22T01:54:39;44.42;;;30.25;;
79583;SDS011;69053;57.338;18.700;2023-06-22T02:05:02;45.60;;;28.75;;
79583;SDS011;69053;57.338;18.700;2023-06-22T02:10:27;40.95;;;29.20;;
79583;SDS011;69053;57.338;18.700;2023-06-22T02:15:30;43.38;;;29.30;;
79583;SDS011;69053;57.338;18.700;2023-06-22T02:26:39;41.45;;;28.10;;
79583;SDS011;69053;57.338;18.700;2023-06-22T02:31:52;40.95;;;27.95;;
79583;SDS011;69053;57.338;18.700;2023-06-22T02:37:07;40.38;;;28.13;;
79583;SDS011;69053;57.338;18.700;2023-06-22T02:42:10;35.85;;;25.88;;
79583;SDS011;69053;57.338;18.700;2023-06-22T02:58:22;33.42;;;25.95;;
79583;SDS011;69053;57.338;18.700;2023-06-22T03:03:25;33.95;;;24.25;;
79583;SDS011;69053;57.338;18.700;2023-06-22T03:08:26;27.60;;;23.55;;
79583;SDS011;69053;57.338;18.700;2023-06-22T03:18:40;22.70;;;17.88;;
79583;SDS011;69053;57.338;18.700;2023-06-22T03:23:45;25.13;;;19.90;;
79583;SDS011;69053;57.338;18.700;2023-06-22T03:28:46;23.00;;;18.58;;
79583;SDS011;69053;57.338;18.700;2023-06-22T03:33:53;20.67;;;16.23;;
79583;SDS011;69053;57.338;18.700;2023-06-22T03:38:57;20.98;;;16.60;;
79583;SDS011;69053;57.338;18.700;2023-06-22T03:43:58;21.92;;;16.88;;
79583;SDS011;69053;57.338;18.700;2023-06-22T03:48:58;17.80;;;14.93;;
79583;SDS011;69053;57.338;18.700;2023-06-22T03:54:04;19.75;;;14.98;;
79583;SDS011;69053;57.338;18.700;2023-06-22T03:59:05;18.55;;;15.20;;
79583;SDS011;69053;57.338;18.700;2023-06-22T04:04:06;17.55;;;14.75;;
79583;SDS011;69053;57.338;18.700;2023-06-22T04:09:07;16.20;;;12.82;;
79583;SDS011;69053;57.338;18.700;2023-06-22T04:14:11;16.73;;;12.50;;
79583;SDS011;69053;57.338;18.700;2023-06-22T04:19:12;15.35;;;11.35;;
79583;SDS011;69053;57.338;18.700;2023-06-22T04:24:16;17.83;;;9.82;;
79583;SDS011;69053;57.338;18.700;2023-06-22T04:29:20;12.20;;;8.65;;
79583;SDS011;69053;57.338;18.700;2023-06-22T04:34:31;12.32;;;9.15;;
79583;SDS011;69053;57.338;18.700;2023-06-22T04:39:32;10.55;;;8.77;;
79583;SDS011;69053;57.338;18.700;2023-06-22T04:44:32;9.35;;;8.25;;
79583;SDS011;69053;57.338;18.700;2023-06-22T04:49:39;11.65;;;8.30;;
79583;SDS011;69053;57.338;18.700;2023-06-22T04:54:48;10.60;;;7.85;;
79583;SDS011;69053;57.338;18.700;2023-06-22T05:05:44;10.15;;;7.03;;
79583;SDS011;69053;57.338;18.700;2023-06-22T05:10:52;9.75;;;7.10;;
79583;SDS011;69053;57.338;18.700;2023-06-22T05:15:55;10.20;;;6.88;;
79583;SDS011;69053;57.338;18.700;2023-06-22T05:26:12;8.45;;;6.10;;
79583;SDS011;69053;57.338;18.700;2023-06-22T05:31:15;7.65;;;5.57;;
79583;SDS011;69053;57.338;18.700;2023-06-22T05:36:19;7.20;;;5.32;;
79583;SDS011;69053;57.338;18.700;2023-06-22T05:41:35;7.38;;;6.20;;
79583;SDS011;69053;57.338;18.700;2023-06-22T05:46:36;6.47;;;4.90;;
79583;SDS011;69053;57.338;18.700;2023-06-22T05:51:51;6.15;;;4.80;;
79583;SDS011;69053;57.338;18.700;2023-06-22T05:57:04;6.28;;;4.32;;
79583;SDS011;69053;57.338;18.700;2023-06-22T06:02:10;6.47;;;4.28;;
79583;SDS011;69053;57.338;18.700;2023-06-22T06:12:34;5.72;;;3.75;;
79583;SDS011;69053;57.338;18.700;2023-06-22T06:17:35;5.15;;;3.40;;
79583;SDS011;69053;57.338;18.700;2023-06-22T06:22:36;4.43;;;3.53;;
79583;SDS011;69053;57.338;18.700;2023-06-22T06:27:36;6.32;;;3.63;;
79583;SDS011;69053;57.338;18.700;2023-06-22T06:32:37;4.05;;;2.72;;
79583;SDS011;69053;57.338;18.700;2023-06-22T06:37:42;4.47;;;3.25;;
79583;SDS011;69053;57.338;18.700;2023-06-22T06:42:46;6.18;;;3.00;;
79583;SDS011;69053;57.338;18.700;2023-06-22T06:47:51;4.15;;;3.05;;
79583;SDS011;69053;57.338;18.700;2023-06-22T06:52:57;4.38;;;2.85;;
79583;SDS011;69053;57.338;18.700;2023-06-22T06:57:59;3.47;;;2.72;;
79583;SDS011;69053;57.338;18.700;2023-06-22T07:03:00;4.32;;;2.25;;
79583;SDS011;69053;57.338;18.700;2023-06-22T07:08:04;8.25;;;2.00;;
79583;SDS011;69053;57.338;18.700;2023-06-22T07:13:39;5.07;;;2.65;;
79583;SDS011;69053;57.338;18.700;2023-06-22T07:18:41;3.55;;;2.15;;
79583;SDS011;69053;57.338;18.700;2023-06-22T07:24:02;4.57;;;2.83;;
79583;SDS011;69053;57.338;18.700;2023-06-22T07:29:03;4.55;;;2.10;;
79583;SDS011;69053;57.338;18.700;2023-06-22T07:34:06;2.95;;;2.05;;
79583;SDS011;69053;57.338;18.700;2023-06-22T07:39:13;6.28;;;2.53;;
79583;SDS011;69053;57.338;18.700;2023-06-22T07:44:30;3.85;;;2.40;;
79583;SDS011;69053;57.338;18.700;2023-06-22T07:49:36;5.38;;;2.83;;
79583;SDS011;69053;57.338;18.700;2023-06-22T07:54:37;3.35;;;2.40;;
79583;SDS011;69053;57.338;18.700;2023-06-22T07:59:38;3.25;;;2.15;;
79583;SDS011;69053;57.338;18.700;2023-06-22T08:04:39;4.55;;;2.20;;
79583;SDS011;69053;57.338;18.700;2023-06-22T08:09:54;3.88;;;2.15;;
79583;SDS011;69053;57.338;18.700;2023-06-22T08:14:55;3.50;;;2.13;;
79583;SDS011;69053;57.338;18.700;2023-06-22T08:19:56;3.55;;;2.25;;
79583;SDS011;69053;57.338;18.700;2023-06-22T08:24:57;3.63;;;1.88;;
79583;SDS011;69053;57.338;18.700;2023-06-22T08:29:58;3.45;;;1.80;;
79583;SDS011;69053;57.338;18.700;2023-06-22T08:35:02;4.13;;;2.33;;
79583;SDS011;69053;57.338;18.700;2023-06-22T08:40:04;5.25;;;2.30;;
79583;SDS011;69053;57.338;18.700;2023-06-22T08:45:11;2.90;;;1.80;;
79583;SDS011;69053;57.338;18.700;2023-06-22T08:50:23;3.58;;;2.22;;
79583;SDS011;69053;57.338;18.700;2023-06-22T08:55:24;3.97;;;2.05;;
79583;SDS011;69053;57.338;18.700;2023-06-22T09:00:24;3.97;;;1.98;;
79583;SDS011;69053;57.338;18.700;2023-06-22T09:05:25;3.45;;;2.28;;
79583;SDS011;69053;57.338;18.700;2023-06-22T09:10:31;5.45;;;2.53;;
79583;SDS011;69053;57.338;18.700;2023-06-22T09:15:32;6.22;;;2.45;;
79583;SDS011;69053;57.338;18.700;2023-06-22T09:20:32;4.85;;;2.53;;
79583;SDS011;69053;57.338;18.700;2023-06-22T09:25:33;3.55;;;2.28;;
79583;SDS011;69053;57.338;18.700;2023-06-22T09:30:33;6.45;;;2.50;;
79583;SDS011;69053;57.338;18.700;2023-06-22T09:35:34;4.25;;;2.60;;
79583;SDS011;69053;57.338;18.700;2023-06-22T09:40:50;6.68;;;2.67;;
79583;SDS011;69053;57.338;18.700;2023-06-22T09:56:36;4.07;;;2.40;;
79583;SDS011;69053;57.338;18.700;2023-06-22T10:07:44;5.10;;;2.30;;
79583;SDS011;69053;57.338;18.700;2023-06-22T10:19:05;3.67;;;2.30;;
79583;SDS011;69053;57.338;18.700;2023-06-22T10:24:44;4.22;;;3.10;;
79583;SDS011;69053;57.338;18.700;2023-06-22T10:57:22;3.58;;;2.50;;
79583;SDS011;69053;57.338;18.700;2023-06-22T11:02:54;4.17;;;2.40;;
79583;SDS011;69053;57.338;18.700;2023-06-22T11:07:54;2.95;;;2.08;;
79583;SDS011;69053;57.338;18.700;2023-06-22T11:12:55;3.92;;;2.63;;
79583;SDS011;69053;57.338;18.700;2023-06-22T11:17:57;3.85;;;2.45;;
79583;SDS011;69053;57.338;18.700;2023-06-22T11:22:58;3.25;;;2.40;;
79583;SDS011;69053;57.338;18.700;2023-06-22T11:27:58;3.78;;;2.50;;
79583;SDS011;69053;57.338;18.700;2023-06-22T11:32:59;3.30;;;2.40;;
79583;SDS011;69053;57.338;18.700;2023-06-22T11:38:00;4.13;;;2.65;;
79583;SDS011;69053;57.338;18.700;2023-06-22T11:43:00;3.90;;;2.63;;
79583;SDS011;69053;57.338;18.700;2023-06-22T11:48:01;5.25;;;2.70;;
79583;SDS011;69053;57.338;18.700;2023-06-22T11:53:02;4.60;;;2.75;;
79583;SDS011;69053;57.338;18.700;2023-06-22T11:58:03;5.57;;;2.70;;
79583;SDS011;69053;57.338;18.700;2023-06-22T12:03:05;5.30;;;2.75;;
79583;SDS011;69053;57.338;18.700;2023-06-22T12:08:06;3.00;;;2.47;;
79583;SDS011;69053;57.338;18.700;2023-06-22T12:13:06;5.93;;;3.25;;
79583;SDS011;69053;57.338;18.700;2023-06-22T12:18:07;5.95;;;2.53;;
79583;SDS011;69053;57.338;18.700;2023-06-22T12:23:09;4.07;;;2.75;;
79583;SDS011;69053;57.338;18.700;2023-06-22T12:28:09;3.72;;;2.30;;
79583;SDS011;69053;57.338;18.700;2023-06-22T12:33:10;3.75;;;2.45;;
79583;SDS011;69053;57.338;18.700;2023-06-22T12:38:10;3.83;;;2.55;;
79583;SDS011;69053;57.338;18.700;2023-06-22T12:43:11;4.10;;;3.15;;
79583;SDS011;69053;57.338;18.700;2023-06-22T12:48:11;5.38;;;2.90;;
79583;SDS011;69053;57.338;18.700;2023-06-22T12:53:12;7.03;;;2.60;;
79583;SDS011;69053;57.338;18.700;2023-06-22T12:58:13;7.03;;;2.75;;
79583;SDS011;69053;57.338;18.700;2023-06-22T13:03:14;4.75;;;2.70;;
79583;SDS011;69053;57.338;18.700;2023-06-22T13:08:14;4.35;;;2.90;;
79583;SDS011;69053;57.338;18.700;2023-06-22T13:13:15;3.30;;;2.50;;
79583;SDS011;69053;57.338;18.700;2023-06-22T13:18:15;4.38;;;2.67;;
79583;SDS011;69053;57.338;18.700;2023-06-22T13:23:16;4.97;;;2.80;;
79583;SDS011;69053;57.338;18.700;2023-06-22T13:28:17;4.30;;;2.70;;
79583;SDS011;69053;57.338;18.700;2023-06-22T13:33:18;7.25;;;2.72;;
79583;SDS011;69053;57.338;18.700;2023-06-22T13:38:18;4.90;;;3.20;;
79583;SDS011;69053;57.338;18.700;2023-06-22T13:43:19;3.83;;;2.60;;
79583;SDS011;69053;57.338;18.700;2023-06-22T13:48:19;5.45;;;2.33;;
79583;SDS011;69053;57.338;18.700;2023-06-22T13:53:20;3.50;;;2.20;;
79583;SDS011;69053;57.338;18.700;2023-06-22T13:58:20;3.55;;;2.50;;
79583;SDS011;69053;57.338;18.700;2023-06-22T14:03:21;3.80;;;2.60;;
79583;SDS011;69053;57.338;18.700;2023-06-22T14:08:22;2.63;;;2.08;;
79583;SDS011;69053;57.338;18.700;2023-06-22T14:13:24;3.78;;;2.47;;
79583;SDS011;69053;57.338;18.700;2023-06-22T14:18:24;4.32;;;2.30;;
79583;SDS011;69053;57.338;18.700;2023-06-22T14:23:26;3.35;;;2.58;;
79583;SDS011;69053;57.338;18.700;2023-06-22T14:28:27;4.15;;;2.08;;
79583;SDS011;69053;57.338;18.700;2023-06-22T14:33:27;3.45;;;2.25;;
79583;SDS011;69053;57.338;18.700;2023-06-22T14:38:28;4.72;;;2.40;;
79583;SDS011;69053;57.338;18.700;2023-06-22T14:43:28;4.85;;;2.65;;
79583;SDS011;69053;57.338;18.700;2023-06-22T14:48:29;7.13;;;2.38;;
79583;SDS011;69053;57.338;18.700;2023-06-22T14:53:30;2.97;;;2.40;;
79583;SDS011;69053;57.338;18.700;2023-06-22T14:58:31;5.18;;;2.40;;
79583;SDS011;69053;57.338;18.700;2023-06-22T15:03:35;4.03;;;2.40;;
79583;SDS011;69053;57.338;18.700;2023-06-22T15:08:42;3.65;;;2.20;;
79583;SDS011;69053;57.338;18.700;2023-06-22T15:13:43;3.30;;;2.45;;
79583;SDS011;69053;57.338;18.700;2023-06-22T15:18:43;3.88;;;2.25;;
79583;SDS011;69053;57.338;18.700;2023-06-22T15:23:45;3.33;;;2.35;;
79583;SDS011;69053;57.338;18.700;2023-06-22T15:28:45;3.15;;;1.92;;
79583;SDS011;69053;57.338;18.700;2023-06-22T15:33:46;3.03;;;1.90;;
79583;SDS011;69053;57.338;18.700;2023-06-22T15:38:47;3.25;;;2.05;;
79583;SDS011;69053;57.338;18.700;2023-06-22T15:43:47;3.17;;;2.08;;
79583;SDS011;69053;57.338;18.700;2023-06-22T15:48:48;4.10;;;2.13;;
79583;SDS011;69053;57.338;18.700;2023-06-22T15:53:49;3.00;;;2.22;;
79583;SDS011;69053;57.338;18.700;2023-06-22T15:58:49;3.45;;;2.40;;
79583;SDS011;69053;57.338;18.700;2023-06-22T16:03:50;3.05;;;2.22;;
79583;SDS011;69053;57.338;18.700;2023-06-22T16:08:51;2.45;;;1.60;;
79583;SDS011;69053;57.338;18.700;2023-06-22T16:13:51;2.75;;;2.20;;
79583;SDS011;69053;57.338;18.700;2023-06-22T16:18:52;3.70;;;2.17;;
79583;SDS011;69053;57.338;18.700;2023-06-22T16:23:52;4.63;;;2.25;;
79583;SDS011;69053;57.338;18.700;2023-06-22T16:28:53;5.18;;;2.53;;
79583;SDS011;69053;57.338;18.700;2023-06-22T16:33:54;4.03;;;2.17;;
79583;SDS011;69053;57.338;18.700;2023-06-22T16:38:55;3.22;;;2.00;;
79583;SDS011;69053;57.338;18.700;2023-06-22T16:43:55;5.00;;;2.10;;
79583;SDS011;69053;57.338;18.700;2023-06-22T16:48:56;3.15;;;2.10;;
79583;SDS011;69053;57.338;18.700;2023-06-22T16:53:57;2.90;;;2.00;;
79583;SDS011;69053;57.338;18.700;2023-06-22T16:58:58;3.80;;;2.30;;
79583;SDS011;69053;57.338;18.700;2023-06-22T17:04:01;3.65;;;2.67;;
79583;SDS011;69053;57.338;18.700;2023-06-22T17:09:04;3.88;;;2.08;;
79583;SDS011;69053;57.338;18.700;2023-06-22T17:14:06;3.08;;;2.08;;
79583;SDS011;69053;57.338;18.700;2023-06-22T17:19:06;4.80;;;2.10;;
79583;SDS011;69053;57.338;18.700;2023-06-22T17:24:08;3.15;;;2.20;;
79583;SDS011;69053;57.338;18.700;2023-06-22T17:29:08;3.95;;;2.35;;
79583;SDS011;69053;57.338;18.700;2023-06-22T17:34:10;3.53;;;2.47;;
79583;SDS011;69053;57.338;18.700;2023-06-22T17:39:12;3.15;;;1.98;;
79583;SDS011;69053;57.338;18.700;2023-06-22T17:44:20;4.45;;;2.35;;
79583;SDS011;69053;57.338;18.700;2023-06-22T17:49:26;4.40;;;2.22;;
79583;SDS011;69053;57.338;18.700;2023-06-22T17:54:32;4.18;;;2.20;;
79583;SDS011;69053;57.338;18.700;2023-06-22T17:59:33;4.45;;;2.05;;
79583;SDS011;69053;57.338;18.700;2023-06-22T18:04:34;3.33;;;2.38;;
79583;SDS011;69053;57.338;18.700;2023-06-22T18:09:35;3.80;;;2.47;;
79583;SDS011;69053;57.338;18.700;2023-06-22T18:14:36;2.97;;;2.05;;
79583;SDS011;69053;57.338;18.700;2023-06-22T18:19:38;4.78;;;2.15;;
79583;SDS011;69053;57.338;18.700;2023-06-22T18:24:39;5.18;;;2.38;;
79583;SDS011;69053;57.338;18.700;2023-06-22T18:29:40;4.00;;;2.30;;
79583;SDS011;69053;57.338;18.700;2023-06-22T18:34:43;5.57;;;2.80;;
79583;SDS011;69053;57.338;18.700;2023-06-22T18:39:44;5.35;;;2.53;;
79583;SDS011;69053;57.338;18.700;2023-06-22T18:44:52;5.55;;;2.95;;
79583;SDS011;69053;57.338;18.700;2023-06-22T18:50:01;5.10;;;2.47;;
79583;SDS011;69053;57.338;18.700;2023-06-22T18:55:05;3.15;;;2.33;;
79583;SDS011;69053;57.338;18.700;2023-06-22T19:00:11;9.40;;;3.50;;
79583;SDS011;69053;57.338;18.700;2023-06-22T19:05:15;3.38;;;2.85;;
79583;SDS011;69053;57.338;18.700;2023-06-22T19:15:31;6.03;;;3.30;;
79583;SDS011;69053;57.338;18.700;2023-06-22T19:20:35;4.82;;;2.97;;
79583;SDS011;69053;57.338;18.700;2023-06-22T19:25:36;6.93;;;2.70;;
79583;SDS011;69053;57.338;18.700;2023-06-22T19:30:36;6.82;;;3.25;;
79583;SDS011;69053;57.338;18.700;2023-06-22T19:35:37;5.18;;;3.28;;
79583;SDS011;69053;57.338;18.700;2023-06-22T19:40:41;6.63;;;3.10;;
79583;SDS011;69053;57.338;18.700;2023-06-22T19:45:42;4.90;;;3.25;;
79583;SDS011;69053;57.338;18.700;2023-06-22T19:50:43;4.38;;;2.67;;
79583;SDS011;69053;57.338;18.700;2023-06-22T19:55:47;3.92;;;3.13;;
79583;SDS011;69053;57.338;18.700;2023-06-22T20:00:48;4.70;;;2.97;;
79583;SDS011;69053;57.338;18.700;2023-06-22T20:06:16;4.80;;;3.22;;
79583;SDS011;69053;57.338;18.700;2023-06-22T20:11:24;5.40;;;3.75;;
79583;SDS011;69053;57.338;18.700;2023-06-22T20:16:27;5.25;;;3.25;;
79583;SDS011;69053;57.338;18.700;2023-06-22T20:21:29;4.05;;;3.05;;
79583;SDS011;69053;57.338;18.700;2023-06-22T20:31:42;5.70;;;3.20;;
79583;SDS011;69053;57.338;18.700;2023-06-22T20:36:43;5.40;;;3.55;;
79583;SDS011;69053;57.338;18.700;2023-06-22T20:41:43;4.28;;;3.00;;
79583;SDS011;69053;57.338;18.700;2023-06-22T20:46:44;5.57;;;3.67;;
79583;SDS011;69053;57.338;18.700;2023-06-22T20:51:45;5.68;;;3.85;;
79583;SDS011;69053;57.338;18.700;2023-06-22T20:56:46;6.93;;;3.58;;
79583;SDS011;69053;57.338;18.700;2023-06-22T21:01:47;5.50;;;3.47;;
79583;SDS011;69053;57.338;18.700;2023-06-22T21:06:47;5.90;;;4.32;;
79583;SDS011;69053;57.338;18.700;2023-06-22T21:11:48;7.20;;;3.78;;
79583;SDS011;69053;57.338;18.700;2023-06-22T21:16:48;6.97;;;3.72;;
79583;SDS011;69053;57.338;18.700;2023-06-22T21:21:49;6.07;;;3.90;;
79583;SDS011;69053;57.338;18.700;2023-06-22T21:26:49;8.48;;;4.43;;
79583;SDS011;69053;57.338;18.700;2023-06-22T21:31:50;4.72;;;3.70;;
79583;SDS011;69053;57.338;18.700;2023-06-22T21:36:51;4.53;;;3.80;;
79583;SDS011;69053;57.338;18.700;2023-06-22T21:41:51;6.10;;;3.42;;
79583;SDS011;69053;57.338;18.700;2023-06-22T21:46:52;6.65;;;3.65;;
79583;SDS011;69053;57.338;18.700;2023-06-22T21:51:52;5.30;;;3.67;;
79583;SDS011;69053;57.338;18.700;2023-06-22T21:56:53;5.70;;;3.65;;
79583;SDS011;69053;57.338;18.700;2023-06-22T22:01:53;6.35;;;3.83;;
79583;SDS011;69053;57.338;18.700;2023-06-22T22:06:54;6.45;;;3.70;;
79583;SDS011;69053;57.338;18.700;2023-06-22T22:11:55;6.07;;;3.60;;
79583;SDS011;69053;57.338;18.700;2023-06-22T22:16:55;6.15;;;3.60;;
79583;SDS011;69053;57.338;18.700;2023-06-22T22:21:56;4.88;;;3.30;;
79583;SDS011;69053;57.338;18.700;2023-06-22T22:26:56;5.85;;;2.90;;
79583;SDS011;69053;57.338;18.700;2023-06-22T22:31:57;5.85;;;3.60;;
79583;SDS011;69053;57.338;18.700;2023-06-22T22:36:58;5.55;;;3.53;;
79583;SDS011;69053;57.338;18.700;2023-06-22T22:41:58;5.25;;;3.20;;
79583;SDS011;69053;57.338;18.700;2023-06-22T22:46:59;6.20;;;3.20;;
79583;SDS011;69053;57.338;18.700;2023-06-22T22:52:00;4.85;;;3.00;;
79583;SDS011;69053;57.338;18.700;2023-06-22T22:57:00;4.25;;;2.58;;
79583;SDS011;69053;57.338;18.700;2023-06-22T23:02:01;4.68;;;2.70;;
79583;SDS011;69053;57.338;18.700;2023-06-22T23:07:02;5.13;;;3.00;;
79583;SDS011;69053;57.338;18.700;2023-06-22T23:12:02;3.75;;;2.45;;
79583;SDS011;69053;57.338;18.700;2023-06-22T23:17:04;5.28;;;2.65;;
79583;SDS011;69053;57.338;18.700;2023-06-22T23:22:05;3.90;;;2.47;;
79583;SDS011;69053;57.338;18.700;2023-06-22T23:27:06;6.00;;;3.17;;
79583;SDS011;69053;57.338;18.700;2023-06-22T23:32:08;4.45;;;3.05;;
79583;SDS011;69053;57.338;18.700;2023-06-22T23:37:09;4.95;;;2.58;;
79583;SDS011;69053;57.338;18.700;2023-06-22T23:42:10;4.03;;;2.80;;
79583;SDS011;69053;57.338;18.700;2023-06-22T23:47:10;4.65;;;3.20;;
79583;SDS011;69053;57.338;18.700;2023-06-22T23:52:11;6.00;;;2.63;;
79583;SDS011;69053;57.338;18.700;2023-06-22T23:57:12;4.00;;;2.97;;
